Clifford, North Dakota
Current Conditions -  °F | °C
As of 8:55 AM on Monday 22 Dec 2014 (Local Time) from KBAC Reporting Station
Moderate Fog Moderate Fog  
Wind Chill: 26°   Ceiling: 200
Heat Index: 32°   Visibility: 0mi
Dew Point: 32°   Wind: 6mph
Humidity: 100%   Direction: 50°NE
Pressure: 29.47"   Gusts: NA
Location:  47.35°N, 97.41°W
Report Text: KBAC 221455Z AUTO 05005KT M1/4SM FG OVC002 00/00 A2947 RMK AO2
Loading
Personal Weather Stations






























Interactive Weather Map New forecast layout! Learn more

10-Day Weather Forecast

Advertisements
Track Severe Weather on mobile